Time;durP1;ratioP1;P1;durP2;ratioP2;P2;SDS_P1;SDS_P2;PMS_P1;PMS_P2;Temp;Humidity;BMP_temperature;BMP_pressure;BME280_temperature;BME280_humidity;BME280_pressure;Samples;Min_cycle;Max_cycle;Signal;HPM_P1;HPM_P2
2021/11/28 00:00:21;;;;;;;21.77;15.80;;;;;;;11.37;75.51;93593.28;5076154;28;20432;-82
2021/11/28 00:02:49;;;;;;;18.03;15.30;;;;;;;11.31;75.16;93594.75;5074204;28;20463;-81
2021/11/28 00:05:17;;;;;;;21.40;14.87;;;;;;;11.24;75.88;93585.06;5056586;28;20477;-81
2021/11/28 00:08:04;;;;;;;24.07;14.73;;;;;;;11.23;75.99;93599.19;5054793;28;20433;-82
2021/11/28 00:10:46;;;;;;;20.37;14.27;;;;;;;11.15;76.03;93600.84;5055245;28;20904;-82
2021/11/28 00:13:24;;;;;;;27.40;16.90;;;;;;;11.15;75.97;93585.09;5055889;28;20457;-82
2021/11/28 00:15:52;;;;;;;25.27;14.87;;;;;;;11.15;76.12;93576.38;5055767;28;20447;-82
2021/11/28 00:18:19;;;;;;;24.77;15.27;;;;;;;11.17;75.55;93588.38;5053327;28;20447;-82
2021/11/28 00:20:46;;;;;;;21.10;13.97;;;;;;;11.19;76.37;93588.19;5053131;28;20436;-82
2021/11/28 00:23:15;;;;;;;20.40;15.10;;;;;;;11.14;76.02;93578.19;5058456;28;20445;-82
2021/11/28 00:25:42;;;;;;;34.50;17.53;;;;;;;11.17;75.57;93584.91;5072963;28;20556;-82
2021/11/28 00:28:12;;;;;;;66.23;33.07;;;;;;;11.18;75.77;93573.44;5069577;28;20459;-82
2021/11/28 00:30:40;;;;;;;63.13;33.03;;;;;;;11.17;76.36;93572.63;5034949;28;20451;-82
2021/11/28 00:33:06;;;;;;;65.37;37.27;;;;;;;11.09;75.95;93580.50;5055446;28;20440;-82
2021/11/28 00:35:34;;;;;;;44.07;25.17;;;;;;;10.97;76.08;93576.56;5037707;28;20448;-82
2021/11/28 00:38:00;;;;;;;38.00;23.83;;;;;;;10.81;77.77;93573.94;5074794;28;20437;-82
2021/11/28 00:40:29;;;;;;;40.50;23.60;;;;;;;10.68;77.87;93571.78;5076617;28;20867;-82
2021/11/28 00:42:56;;;;;;;34.43;20.63;;;;;;;10.52;78.26;93574.41;5076422;28;20501;-82
2021/11/28 00:45:23;;;;;;;34.40;20.50;;;;;;;10.43;79.09;93578.03;5076867;28;20887;-82
2021/11/28 00:47:50;;;;;;;29.70;19.40;;;;;;;10.41;78.98;93577.38;5063900;28;20451;-82
2021/11/28 00:50:37;;;;;;;32.57;18.77;;;;;;;10.40;78.84;93576.50;5056170;28;20434;-82
2021/11/28 00:53:04;;;;;;;52.90;30.27;;;;;;;10.31;79.34;93559.13;5056605;28;20432;-83
2021/11/28 00:55:33;;;;;;;40.13;23.37;;;;;;;10.12;80.71;93580.34;5056220;28;20450;-82
2021/11/28 00:58:00;;;;;;;33.93;21.00;;;;;;;10.16;80.52;93579.91;5057104;28;20430;-82
2021/11/28 01:00:27;;;;;;;40.10;26.70;;;;;;;10.24;80.72;93579.13;5056214;28;20448;-82
2021/11/28 01:02:55;;;;;;;37.77;23.40;;;;;;;10.33;79.66;93578.16;5057346;28;20455;-82
2021/11/28 01:05:21;;;;;;;37.23;23.83;;;;;;;10.23;80.69;93553.88;5055938;28;20468;-82
2021/11/28 01:07:48;;;;;;;47.23;26.40;;;;;;;10.20;80.96;93564.66;5055947;28;20927;-82
2021/11/28 01:10:16;;;;;;;35.70;22.40;;;;;;;10.27;80.72;93570.09;5037965;28;20453;-82
2021/11/28 01:12:44;;;;;;;43.27;25.30;;;;;;;10.24;80.52;93545.03;5056038;28;20524;-82
2021/11/28 01:15:13;;;;;;;36.13;23.17;;;;;;;10.25;80.85;93570.28;5055652;28;20447;-82
2021/11/28 01:17:40;;;;;;;42.17;24.53;;;;;;;9.85;82.38;93542.94;5062946;28;20437;-82
2021/11/28 01:20:09;;;;;;;47.13;25.93;;;;;;;9.89;82.38;93533.78;5076677;28;20501;-82
2021/11/28 01:22:36;;;;;;;41.60;23.67;;;;;;;9.60;82.54;93541.22;5076210;28;20439;-82
2021/11/28 01:25:04;;;;;;;36.70;21.70;;;;;;;9.47;82.79;93539.00;5075892;28;20470;-82
2021/11/28 01:27:33;;;;;;;28.17;19.90;;;;;;;9.53;83.30;93535.75;5075415;28;20453;-82
2021/11/28 01:30:01;;;;;;;32.03;20.20;;;;;;;9.60;83.39;93554.31;5075949;28;20439;-82
2021/11/28 01:32:29;;;;;;;32.67;20.80;;;;;;;9.60;82.78;93539.41;5075403;28;20442;-82
2021/11/28 01:34:55;;;;;;;30.13;20.13;;;;;;;9.55;83.39;93530.38;5057109;28;20449;-82
2021/11/28 01:37:22;;;;;;;32.43;19.00;;;;;;;9.60;83.34;93525.50;5075245;28;20434;-82
2021/11/28 01:39:49;;;;;;;41.17;25.23;;;;;;;9.49;83.71;93538.84;5074814;28;20465;-82
2021/11/28 01:42:16;;;;;;;36.40;24.73;;;;;;;9.50;84.34;93550.97;5074989;28;21315;-82
2021/11/28 01:44:43;;;;;;;40.33;25.47;;;;;;;9.56;84.93;93564.28;5075626;28;20490;-82
2021/11/28 01:47:11;;;;;;;52.07;29.10;;;;;;;9.55;83.76;93561.81;5075062;28;20436;-82
2021/11/28 01:50:00;;;;;;;54.53;30.60;;;;;;;9.63;84.28;93569.69;5074381;28;20430;-82
2021/11/28 01:52:27;;;;;;;44.20;26.13;;;;;;;9.68;83.33;93570.03;5053667;28;20466;-82
2021/11/28 01:54:55;;;;;;;45.77;28.63;;;;;;;9.66;83.75;93556.28;5031077;28;20455;-82
2021/11/28 01:57:22;;;;;;;47.43;27.83;;;;;;;9.62;84.17;93557.59;5061202;28;20455;-82
2021/11/28 01:59:50;;;;;;;43.43;27.97;;;;;;;9.68;83.09;93577.09;5075118;28;20459;-82
2021/11/28 02:02:19;;;;;;;39.20;25.83;;;;;;;9.69;83.28;93579.53;5075214;28;20443;-82
2021/11/28 02:04:46;;;;;;;47.73;28.40;;;;;;;9.76;84.01;93580.56;5005876;28;20493;-82
2021/11/28 02:07:15;;;;;;;41.97;27.60;;;;;;;9.79;83.24;93575.00;5071481;28;20444;-82
2021/11/28 02:09:42;;;;;;;42.97;28.67;;;;;;;9.84;83.20;93578.00;5055100;28;20440;-82
2021/11/28 02:12:09;;;;;;;45.60;29.10;;;;;;;9.93;83.15;93587.50;5054648;28;20437;-82
2021/11/28 02:14:36;;;;;;;56.87;32.37;;;;;;;9.99;82.56;93580.81;5054527;28;20437;-82
2021/11/28 02:17:03;;;;;;;44.80;31.70;;;;;;;9.65;83.43;93567.75;5055687;28;20787;-82
2021/11/28 02:19:32;;;;;;;45.50;25.77;;;;;;;9.56;83.13;93571.31;5054837;28;20439;-82
2021/11/28 02:22:00;;;;;;;36.70;23.63;;;;;;;9.46;83.56;93547.03;5054697;28;20444;-83
2021/11/28 02:24:27;;;;;;;31.60;20.90;;;;;;;9.13;84.68;93552.06;5054328;28;20472;-82
2021/11/28 02:26:54;;;;;;;31.20;22.20;;;;;;;9.25;85.18;93550.88;5054712;28;20462;-82
2021/11/28 02:29:21;;;;;;;38.63;21.37;;;;;;;9.36;85.27;93552.38;5054304;28;20439;-81
2021/11/28 02:31:48;;;;;;;29.90;18.87;;;;;;;9.46;84.64;93552.25;5054766;28;20443;-82
2021/11/28 02:34:15;;;;;;;29.27;19.00;;;;;;;9.55;84.48;93543.47;5054346;28;20805;-82
2021/11/28 02:36:42;;;;;;;27.77;18.40;;;;;;;9.61;83.67;93542.84;5054421;28;20512;-82
2021/11/28 02:39:10;;;;;;;30.90;21.00;;;;;;;9.66;83.32;93532.72;5053975;28;20484;-82
2021/11/28 02:41:38;;;;;;;32.60;19.33;;;;;;;9.62;83.08;93532.22;5066313;28;20457;-82
2021/11/28 02:44:05;;;;;;;28.17;18.60;;;;;;;9.49;83.24;93515.28;5074237;28;20472;-82
2021/11/28 02:46:32;;;;;;;36.83;17.73;;;;;;;9.48;84.52;93513.66;5073744;28;20479;-82
2021/11/28 02:48:59;;;;;;;24.97;17.93;;;;;;;9.60;84.16;93507.16;5074339;28;20439;-82
2021/11/28 02:58:13;;;;;;;28.87;18.40;;;;;;;9.81;82.81;93499.69;5072653;28;20913;-82
2021/11/28 03:00:42;;;;;;;24.77;18.20;;;;;;;9.87;83.11;93495.63;5038938;28;20931;-82
2021/11/28 03:03:09;;;;;;;25.87;18.03;;;;;;;9.89;83.10;93497.09;5073444;28;20439;-82
2021/11/28 03:05:36;;;;;;;24.57;17.83;;;;;;;9.93;82.91;93508.91;5073409;28;20467;-82
2021/11/28 03:08:03;;;;;;;25.17;16.67;;;;;;;9.93;82.98;93510.69;5055185;28;20457;-82
2021/11/28 03:10:36;;;;;;;27.90;19.03;;;;;;;9.93;82.79;93510.69;5073877;28;20443;-81
2021/11/28 03:13:05;;;;;;;28.27;17.27;;;;;;;9.97;83.76;93504.16;5069735;28;20473;-82
2021/11/28 03:15:34;;;;;;;24.80;18.33;;;;;;;9.91;82.99;93499.56;5019092;28;20927;-82
2021/11/28 03:18:02;;;;;;;29.43;17.80;;;;;;;9.85;83.77;93501.03;5053754;28;20420;-82
2021/11/28 03:20:30;;;;;;;34.77;19.10;;;;;;;9.75;83.91;93496.88;5063825;28;20451;-82
2021/11/28 03:33:03;;;;;;;27.80;18.77;;;;;;;9.05;87.71;93455.22;5053373;28;20414;-83
2021/11/28 03:35:30;;;;;;;35.40;18.90;;;;;;;9.27;86.98;93464.34;5053822;28;20432;-83
2021/11/28 03:37:57;;;;;;;27.90;19.73;;;;;;;9.37;86.87;93464.19;5051868;28;20435;-82
2021/11/28 03:40:24;;;;;;;34.00;19.13;;;;;;;9.21;86.55;93444.81;5053690;28;20924;-82
2021/11/28 03:46:13;;;;;;;29.20;20.37;;;;;;;9.47;86.42;93457.03;5050304;28;20936;-83
2021/11/28 03:48:42;;;;;;;34.00;20.50;;;;;;;9.47;85.39;93460.47;5052959;28;20429;-82
2021/11/28 03:51:09;;;;;;;34.63;21.17;;;;;;;9.46;85.00;93481.56;5053368;28;20476;-82
2021/11/28 03:53:36;;;;;;;36.07;21.63;;;;;;;9.52;86.05;93509.72;5053167;28;20486;-83
2021/11/28 03:56:06;;;;;;;36.60;22.00;;;;;;;9.38;86.08;93512.97;5052442;28;20459;-82
2021/11/28 03:58:33;;;;;;;33.50;21.50;;;;;;;9.43;86.56;93534.25;5052524;28;20440;-82
2021/11/28 04:01:01;;;;;;;34.77;19.57;;;;;;;9.45;86.67;93550.63;5052836;28;20798;-82
2021/11/28 04:03:28;;;;;;;44.57;23.63;;;;;;;9.35;86.81;93560.41;5052301;28;20963;-82
2021/11/28 04:05:57;;;;;;;33.93;21.27;;;;;;;9.37;86.66;93574.97;5052545;28;20487;-82
2021/11/28 04:08:24;;;;;;;30.87;20.40;;;;;;;9.45;86.65;93592.50;5052642;28;20454;-83
2021/11/28 04:10:51;;;;;;;24.57;17.43;;;;;;;9.44;86.93;93594.31;5053219;28;20441;-82
2021/11/28 04:13:18;;;;;;;25.83;16.37;;;;;;;9.37;86.77;93595.09;5055771;28;20450;-82
2021/11/28 04:15:46;;;;;;;30.57;18.80;;;;;;;9.17;87.45;93603.13;5056958;28;20445;-82
2021/11/28 04:18:12;;;;;;;27.43;18.90;;;;;;;9.35;87.27;93617.97;5021261;28;20435;-83
2021/11/28 04:20:41;;;;;;;21.43;14.83;;;;;;;8.94;88.65;93604.59;5056526;28;20439;-83
2021/11/28 04:23:10;;;;;;;22.73;16.60;;;;;;;9.15;88.73;93630.44;5069484;28;20448;-83
2021/11/28 04:25:37;;;;;;;25.63;16.53;;;;;;;9.14;88.72;93620.94;5077147;28;20483;-83
2021/11/28 04:28:05;;;;;;;22.20;15.23;;;;;;;9.14;89.19;93606.06;5076616;28;21078;-82
2021/11/28 04:30:32;;;;;;;26.40;18.90;;;;;;;9.25;88.93;93599.75;5077089;28;20427;-82
2021/11/28 04:32:59;;;;;;;29.03;19.87;;;;;;;9.31;88.67;93615.69;5076600;28;20445;-82
2021/11/28 04:35:26;;;;;;;28.97;18.67;;;;;;;9.44;88.06;93622.28;5041763;28;20443;-82
2021/11/28 04:37:53;;;;;;;29.17;19.27;;;;;;;9.43;88.42;93591.84;5076870;28;20465;-82
2021/11/28 04:40:22;;;;;;;26.57;20.40;;;;;;;9.23;88.99;93599.91;5076511;28;20444;-82
2021/11/28 04:42:49;;;;;;;29.47;22.07;;;;;;;9.04;90.84;93602.72;5076530;28;20444;-82
2021/11/28 04:45:16;;;;;;;27.70;18.57;;;;;;;9.11;90.39;93622.06;5076377;28;20490;-82
2021/11/28 04:47:43;;;;;;;24.47;16.63;;;;;;;9.18;90.10;93632.75;5076137;28;20906;-83
2021/11/28 04:50:13;;;;;;;24.77;16.60;;;;;;;9.26;89.35;93636.25;5076145;28;20448;-82
2021/11/28 04:52:40;;;;;;;35.70;21.27;;;;;;;9.26;89.15;93630.22;5041294;28;20445;-83
2021/11/28 04:55:09;;;;;;;34.33;22.40;;;;;;;9.40;88.67;93634.03;5041338;28;20440;-81
2021/11/28 04:57:37;;;;;;;39.67;21.83;;;;;;;9.51;88.50;93639.00;5041108;28;20446;-82
2021/11/28 05:00:07;;;;;;;24.87;17.03;;;;;;;9.55;87.41;93625.47;5057785;28;20454;-82
2021/11/28 05:02:34;;;;;;;23.27;17.13;;;;;;;9.39;87.99;93622.75;5057975;28;20439;-82
2021/11/28 05:05:01;;;;;;;29.40;18.43;;;;;;;9.23;88.98;93626.06;5076458;28;20423;-81
2021/11/28 05:07:28;;;;;;;33.47;22.67;;;;;;;9.34;88.57;93611.94;5076724;28;20431;-82
2021/11/28 05:09:55;;;;;;;40.80;24.70;;;;;;;9.32;87.76;93603.41;5076365;28;20446;-83
2021/11/28 05:12:22;;;;;;;27.87;16.63;;;;;;;9.37;87.58;93611.63;5041401;28;20517;-82
2021/11/28 05:14:51;;;;;;;28.03;19.27;;;;;;;9.43;87.66;93615.41;5076225;28;20958;-83
2021/11/28 05:17:19;;;;;;;33.83;17.00;;;;;;;9.11;88.38;93626.47;5057813;28;20443;-82
2021/11/28 05:19:46;;;;;;;29.30;18.90;;;;;;;9.13;89.50;93627.16;5076009;28;20539;-82
2021/11/28 05:22:13;;;;;;;26.00;16.57;;;;;;;9.15;88.99;93640.91;5076279;28;20518;-81
2021/11/28 05:38:08;;;;;;;43.93;28.07;;;;;;;9.27;86.39;93651.00;5074552;28;20413;-82
2021/11/28 05:40:35;;;;;;;62.77;30.77;;;;;;;9.12;87.42;93649.06;5075285;28;20944;-83
2021/11/28 05:43:02;;;;;;;36.27;25.97;;;;;;;9.11;87.80;93629.09;5075776;28;20426;-83
2021/11/28 05:45:29;;;;;;;36.00;23.87;;;;;;;9.11;88.25;93616.84;5075315;28;20501;-82
2021/11/28 05:47:56;;;;;;;31.33;20.07;;;;;;;9.18;87.95;93593.47;5075335;28;20434;-86
2021/11/28 05:50:26;;;;;;;39.97;27.27;;;;;;;9.00;87.87;93589.13;5075391;28;20451;-83
2021/11/28 05:52:53;;;;;;;45.60;28.70;;;;;;;8.88;88.25;93582.47;5076000;28;20443;-83
2021/11/28 05:55:22;;;;;;;41.40;26.80;;;;;;;8.83;88.84;93584.75;5056531;28;20947;-82
2021/11/28 05:57:50;;;;;;;54.13;32.50;;;;;;;8.73;89.29;93584.00;5058355;28;20486;-83
2021/11/28 06:00:20;;;;;;;58.43;36.07;;;;;;;8.67;90.55;93597.66;5055905;28;20461;-81
2021/11/28 06:02:47;;;;;;;36.50;23.70;;;;;;;8.47;92.36;93602.25;5055532;28;20496;-89
2021/11/28 06:05:14;;;;;;;23.33;13.43;;;;;;;8.46;93.50;93610.25;5054876;28;20446;-82
2021/11/28 06:07:41;;;;;;;29.60;17.17;;;;;;;8.22;95.02;93602.94;5055110;28;20837;-80
2021/11/28 06:10:09;;;;;;;20.73;13.93;;;;;;;8.32;96.18;93594.06;5055212;28;20786;-81
2021/11/28 06:12:37;;;;;;;28.97;18.40;;;;;;;8.46;96.07;93625.94;5055057;28;20917;-82
2021/11/28 06:15:05;;;;;;;27.30;17.97;;;;;;;8.60;95.25;93628.81;5054517;28;20439;-83
2021/11/28 06:17:32;;;;;;;28.70;17.13;;;;;;;8.76;95.11;93650.88;5054591;28;20941;-84
2021/11/28 06:19:59;;;;;;;23.70;15.53;;;;;;;8.98;93.59;93637.34;5054469;28;20447;-87
2021/11/28 06:22:26;;;;;;;21.67;14.97;;;;;;;8.90;92.35;93609.31;5054781;28;20439;-82
2021/11/28 06:24:53;;;;;;;29.07;18.17;;;;;;;8.93;92.88;93650.03;5054238;28;20919;-83
2021/11/28 06:27:20;;;;;;;33.10;18.37;;;;;;;8.99;91.63;93657.31;5020077;28;20479;-89
2021/11/28 06:29:48;;;;;;;20.80;13.13;;;;;;;9.11;91.36;93640.38;5053897;28;20855;-83
2021/11/28 06:32:15;;;;;;;30.80;15.80;;;;;;;8.84;91.94;93637.88;5053061;28;20440;-79
2021/11/28 06:34:42;;;;;;;28.80;17.10;;;;;;;8.80;93.39;93645.19;5036016;28;20578;-85
2021/11/28 06:37:10;;;;;;;23.53;15.40;;;;;;;9.05;92.16;93643.63;5054336;28;20423;-82
2021/11/28 06:39:38;;;;;;;19.23;13.63;;;;;;;9.26;92.29;93661.63;5054786;28;20795;-80
2021/11/28 06:42:05;;;;;;;32.20;21.00;;;;;;;9.46;90.64;93680.56;5053961;28;20440;-81
2021/11/28 06:45:00;;;;;;;22.77;14.67;;;;;;;9.71;89.67;93682.38;5048973;28;20487;-82
2021/11/28 06:47:27;;;;;;;22.57;14.00;;;;;;;9.91;89.74;93686.41;5054040;28;20483;-81
2021/11/28 06:49:54;;;;;;;20.47;13.43;;;;;;;10.12;87.88;93679.94;5054430;28;20439;-82
2021/11/28 06:52:21;;;;;;;26.50;13.83;;;;;;;10.24;87.27;93689.22;5053980;28;20433;-81
2021/11/28 06:54:48;;;;;;;23.63;13.40;;;;;;;10.45;86.59;93676.53;5054261;28;20440;-83
2021/11/28 06:57:15;;;;;;;28.80;17.97;;;;;;;10.64;86.14;93693.78;5053627;28;20444;-82
2021/11/28 06:59:42;;;;;;;27.60;17.23;;;;;;;10.82;84.35;93689.25;5053695;28;20442;-81
2021/11/28 07:02:10;;;;;;;21.00;14.00;;;;;;;10.89;83.43;93686.78;5054010;28;20455;-81
2021/11/28 07:04:39;;;;;;;27.60;19.10;;;;;;;11.03;83.36;93685.34;5053913;28;20464;-82
2021/11/28 07:07:06;;;;;;;20.07;14.90;;;;;;;11.13;82.31;93681.56;5053720;28;20522;-80
2021/11/28 07:09:33;;;;;;;23.63;14.30;;;;;;;11.24;80.76;93687.47;5053805;28;20426;-83
2021/11/28 07:12:00;;;;;;;26.00;15.50;;;;;;;11.28;81.35;93694.06;5053659;28;20437;-82
2021/11/28 07:14:27;;;;;;;22.90;16.40;;;;;;;11.38;80.38;93713.94;5019121;28;20448;-84
2021/11/28 07:16:54;;;;;;;21.73;13.63;;;;;;;11.31;80.13;93706.88;5053899;28;20436;-82
2021/11/28 07:19:22;;;;;;;25.50;15.00;;;;;;;11.30;79.92;93718.34;5019019;28;20508;-83
2021/11/28 07:25:27;;;;;;;34.20;21.53;;;;;;;11.45;79.98;93708.81;5053719;28;20397;-85
2021/11/28 07:27:55;;;;;;;37.43;18.27;;;;;;;11.56;80.35;93718.19;5053534;28;21051;-85
2021/11/28 07:30:22;;;;;;;27.30;16.70;;;;;;;11.69;80.04;93705.38;5053279;28;20483;-84
2021/11/28 07:32:50;;;;;;;26.13;16.63;;;;;;;11.31;80.60;93678.81;5053518;28;20478;-84
2021/11/28 07:35:18;;;;;;;23.53;13.37;;;;;;;11.28;80.18;93687.00;5053756;28;20429;-84
2021/11/28 07:37:45;;;;;;;20.63;14.30;;;;;;;11.41;81.05;93679.44;5053657;28;20463;-84
2021/11/28 07:40:13;;;;;;;29.40;16.37;;;;;;;11.52;79.84;93675.66;5053875;28;20430;-83
2021/11/28 07:57:06;;;;;;;18.27;11.20;;;;;;;11.44;81.41;93673.88;5053922;28;20473;-83
2021/11/28 07:59:34;;;;;;;15.90;7.13;;;;;;;11.23;80.97;93638.56;5075379;28;20439;-83
2021/11/28 08:02:01;;;;;;;12.63;9.50;;;;;;;11.35;80.56;93642.53;5077311;28;20535;-83
2021/11/28 08:04:28;;;;;;;12.63;8.73;;;;;;;11.59;80.14;93676.66;5076842;28;20439;-82
2021/11/28 08:06:55;;;;;;;14.20;8.13;;;;;;;11.74;80.41;93674.97;5042148;28;20480;-83
2021/11/28 08:09:22;;;;;;;10.53;6.57;;;;;;;11.71;78.58;93646.41;5077922;28;20430;-82
2021/11/28 08:15:18;;;;;;;7.13;5.23;;;;;;;11.88;78.71;93663.00;5076769;28;20428;-83
2021/11/28 08:17:47;;;;;;;11.63;5.13;;;;;;;11.85;78.59;93638.84;5077151;28;20428;-81
2021/11/28 08:20:16;;;;;;;12.70;7.17;;;;;;;11.92;79.73;93656.41;5077252;28;20564;-84
2021/11/28 08:22:43;;;;;;;12.27;6.33;;;;;;;12.06;79.61;93654.88;5076880;28;20452;-84
2021/11/28 08:25:13;;;;;;;11.17;8.03;;;;;;;12.09;78.55;93631.69;5076809;28;20441;-83
2021/11/28 08:27:40;;;;;;;19.00;8.67;;;;;;;12.22;79.75;93673.25;5076444;28;21084;-83
2021/11/28 08:30:11;;;;;;;9.70;6.97;;;;;;;12.39;78.67;93674.81;5077163;28;20457;-83
2021/11/28 08:32:41;;;;;;;7.00;4.90;;;;;;;12.50;77.75;93671.00;5076799;28;20530;-83
2021/11/28 08:35:09;;;;;;;8.90;4.80;;;;;;;12.40;77.92;93678.25;5076598;28;20919;-83
2021/11/28 08:37:37;;;;;;;4.70;4.17;;;;;;;12.38;77.89;93678.44;5076517;28;20519;-84
2021/11/28 08:40:06;;;;;;;6.50;4.63;;;;;;;12.28;78.26;93656.78;5076889;28;20449;-83
2021/11/28 08:42:34;;;;;;;8.53;5.17;;;;;;;12.44;79.06;93662.97;5076358;28;20458;-84
2021/11/28 08:45:01;;;;;;;5.40;4.63;;;;;;;12.58;77.98;93676.22;5075341;28;20528;-83
2021/11/28 08:47:28;;;;;;;8.13;4.93;;;;;;;12.69;77.73;93688.97;5075990;28;20572;-83
2021/11/28 08:49:56;;;;;;;9.83;4.10;;;;;;;12.59;77.50;93654.19;5075861;28;20451;-83
2021/11/28 08:52:24;;;;;;;7.97;5.47;;;;;;;12.68;78.14;93654.94;5075380;28;20523;-83
2021/11/28 08:54:51;;;;;;;12.30;5.60;;;;;;;12.89;77.71;93660.41;5075453;28;20442;-82
2021/11/28 08:57:18;;;;;;;5.83;4.17;;;;;;;12.98;77.30;93653.28;5041109;28;20481;-82
2021/11/28 08:59:45;;;;;;;11.90;6.90;;;;;;;12.97;77.18;93631.38;5040870;28;20442;-80
2021/11/28 09:02:12;;;;;;;12.83;7.67;;;;;;;12.92;77.25;93633.75;5076998;28;20449;-82
2021/11/28 09:04:39;;;;;;;10.30;7.30;;;;;;;13.07;77.35;93661.97;5041391;28;20441;-81
2021/11/28 09:07:07;;;;;;;20.87;11.30;;;;;;;13.23;76.94;93664.50;5076658;28;20476;-81
2021/11/28 09:09:35;;;;;;;34.03;15.30;;;;;;;13.23;76.79;93661.84;5057850;28;20443;-81
2021/11/28 09:12:03;;;;;;;37.00;12.90;;;;;;;13.15;77.34;93667.97;5075795;28;20442;-82
2021/11/28 09:17:55;;;;;;;17.43;8.07;;;;;;;13.15;77.55;93675.88;5074794;28;20464;-82
2021/11/28 09:20:24;;;;;;;14.60;6.03;;;;;;;13.27;77.27;93678.94;5076003;28;20877;-81
2021/11/28 09:25:38;;;;;;;49.07;22.90;;;;;;;13.45;75.71;93661.03;5075777;28;20790;-82
2021/11/28 09:28:06;;;;;;;31.23;16.13;;;;;;;13.47;75.73;93650.31;5076135;28;20476;-82
2021/11/28 09:30:34;;;;;;;12.10;9.10;;;;;;;13.49;75.58;93641.22;5057221;28;20510;-81
2021/11/28 09:33:03;;;;;;;17.03;11.20;;;;;;;13.56;75.62;93647.41;5075543;28;20901;-82
2021/11/28 09:35:30;;;;;;;51.27;24.70;;;;;;;14.52;100.00;93643.13;5075216;28;20447;-84
2021/11/28 09:37:59;;;;;;;39.97;18.40;;;;;;;15.05;84.73;93655.13;5076395;28;20467;-84
2021/11/28 09:40:26;;;;;;;14.67;8.20;;;;;;;15.08;71.94;93643.34;5075240;28;20479;-82
2021/11/28 09:42:55;;;;;;;11.77;7.47;;;;;;;15.01;71.55;93629.25;5075395;28;20961;-83
2021/11/28 09:45:23;;;;;;;15.50;9.60;;;;;;;14.73;71.53;93618.59;5075586;28;20429;-82
2021/11/28 09:47:51;;;;;;;16.47;9.30;;;;;;;14.57;72.35;93638.94;5075497;28;20812;-83
2021/11/28 09:50:19;;;;;;;40.10;20.93;;;;;;;14.49;73.02;93640.88;5076129;28;20435;-81
2021/11/28 09:52:50;;;;;;;21.10;12.70;;;;;;;14.39;72.94;93641.09;5074789;28;20449;-80
2021/11/28 09:55:20;;;;;;;11.93;6.60;;;;;;;14.20;72.41;93626.66;5075029;28;20436;-85
2021/11/28 09:57:47;;;;;;;12.50;5.93;;;;;;;14.07;73.32;93625.66;5076816;28;20453;-83
2021/11/28 10:00:16;;;;;;;10.40;5.77;;;;;;;14.11;73.38;93629.56;5076459;28;20778;-84
2021/11/28 10:02:43;;;;;;;16.13;9.17;;;;;;;14.10;74.17;93612.09;5040716;28;20454;-84
2021/11/28 10:05:12;;;;;;;15.77;11.23;;;;;;;13.94;74.81;93607.84;5074897;28;20444;-82
2021/11/28 10:07:44;;;;;;;24.90;11.70;;;;;;;13.90;74.72;93596.84;5075034;28;20475;-82
2021/11/28 10:10:13;;;;;;;11.23;6.30;;;;;;;13.93;74.93;93600.94;5073830;28;20483;-83
2021/11/28 10:12:43;;;;;;;18.40;9.07;;;;;;;14.00;74.58;93593.09;5075387;28;20451;-83
2021/11/28 10:18:48;;;;;;;18.93;10.13;;;;;;;14.09;74.58;93578.81;5074751;28;20823;-82
2021/11/28 10:21:15;;;;;;;7.27;5.80;;;;;;;14.01;73.75;93571.00;5039850;28;20460;-80
2021/11/28 10:24:07;;;;;;;13.07;6.40;;;;;;;14.01;74.50;93571.00;5074743;28;20451;-86
2021/11/28 10:26:34;;;;;;;12.53;7.33;;;;;;;14.14;74.50;93574.63;5074802;28;20437;-81
2021/11/28 10:29:07;;;;;;;13.53;7.97;;;;;;;14.20;74.79;93555.44;5056062;28;20527;-80
2021/11/28 10:31:44;;;;;;;17.03;9.47;;;;;;;14.23;73.94;93557.69;5074379;28;20429;-81
2021/11/28 10:34:15;;;;;;;16.70;8.10;;;;;;;14.16;73.64;93567.34;5039544;28;20451;-86
2021/11/28 10:36:43;;;;;;;9.80;7.43;;;;;;;14.08;73.36;93546.34;5074568;28;20437;-83
2021/11/28 10:39:15;;;;;;;8.00;5.90;;;;;;;13.98;72.16;93548.44;5074483;28;20429;-82
2021/11/28 10:41:49;;;;;;;5.90;5.23;;;;;;;13.94;72.20;93544.56;5074805;28;20453;-91
2021/11/28 10:47:44;;;;;;;9.97;6.03;;;;;;;13.81;73.56;93528.53;5054132;28;20489;-77
2021/11/28 10:50:15;;;;;;;13.57;8.23;;;;;;;13.77;73.71;93530.72;5060918;28;20447;-82
2021/11/28 10:52:45;;;;;;;10.10;7.77;;;;;;;13.80;73.95;93537.44;5074280;28;20921;-83
2021/11/28 10:55:19;;;;;;;20.33;10.93;;;;;;;13.80;74.05;93525.09;5073831;28;20436;-82
2021/11/28 10:57:46;;;;;;;16.07;10.10;;;;;;;13.87;73.39;93533.06;5073380;28;20806;-84
2021/11/28 11:00:15;;;;;;;14.00;8.40;;;;;;;13.93;71.84;93535.00;5073011;28;20444;-85
2021/11/28 11:02:43;;;;;;;11.93;8.23;;;;;;;14.09;71.99;93571.72;5074103;28;20809;-84
2021/11/28 11:05:13;;;;;;;9.70;7.47;;;;;;;14.17;72.19;93574.28;5073960;28;20934;-85
2021/11/28 11:07:48;;;;;;;18.17;7.80;;;;;;;14.25;71.87;93562.78;5074370;28;20802;-90
2021/11/28 11:10:19;;;;;;;15.90;7.30;;;;;;;14.31;71.40;93566.50;5074624;28;20787;-83
2021/11/28 11:12:47;;;;;;;7.50;6.70;;;;;;;14.42;71.07;93581.84;5074058;28;20451;-86
2021/11/28 11:15:29;;;;;;;10.23;7.80;;;;;;;14.49;71.58;93601.28;5073724;28;20428;-85
2021/11/28 11:17:59;;;;;;;7.40;6.27;;;;;;;14.52;70.22;93606.19;5038854;28;20439;-83
2021/11/28 11:20:27;;;;;;;9.03;5.70;;;;;;;14.60;69.88;93611.34;5074104;28;20531;-83
2021/11/28 11:22:55;;;;;;;9.67;6.20;;;;;;;14.73;69.25;93624.69;5073828;28;20446;-81
2021/11/28 11:25:31;;;;;;;8.37;6.40;;;;;;;14.72;69.23;93603.75;5073690;28;20804;-83
2021/11/28 11:28:08;;;;;;;11.07;7.27;;;;;;;14.79;69.02;93615.22;5055416;28;20489;-84
2021/11/28 11:30:35;;;;;;;6.00;4.50;;;;;;;14.83;65.49;93611.19;5074064;28;20441;-81
2021/11/28 11:33:05;;;;;;;2.73;2.20;;;;;;;14.86;55.81;93610.81;5073882;28;20429;-85
2021/11/28 11:35:34;;;;;;;4.03;1.83;;;;;;;14.97;55.19;93597.09;5073905;28;20432;-86
2021/11/28 11:38:03;;;;;;;1.90;1.60;;;;;;;15.08;54.68;93569.38;5074197;28;20445;-84
2021/11/28 11:40:30;;;;;;;4.50;1.50;;;;;;;15.14;54.30;93571.25;5073444;28;20440;-84
2021/11/28 11:42:58;;;;;;;1.80;1.60;;;;;;;15.29;53.99;93564.06;5073756;28;20430;-83
2021/11/28 11:48:48;;;;;;;2.13;1.50;;;;;;;15.50;52.49;93571.94;5072650;28;20520;-83
2021/11/28 11:51:15;;;;;;;2.07;1.70;;;;;;;15.56;52.45;93562.44;5073232;28;20445;-83
2021/11/28 11:53:42;;;;;;;1.97;1.80;;;;;;;15.57;52.36;93552.66;5073522;28;20457;-82
2021/11/28 11:56:17;;;;;;;5.43;3.50;;;;;;;15.63;56.03;93557.25;5073898;28;20489;-90
2021/11/28 11:58:52;;;;;;;5.50;3.37;;;;;;;15.63;51.47;93547.47;5073524;28;20462;-85
2021/11/28 12:01:26;;;;;;;2.73;1.90;;;;;;;15.71;51.00;93546.50;5073291;28;20470;-83
2021/11/28 12:03:56;;;;;;;3.37;1.80;;;;;;;15.78;50.78;93548.16;5073285;28;20508;-83
2021/11/28 12:06:48;;;;;;;1.70;1.60;;;;;;;15.85;49.61;93544.75;5072863;28;20451;-83
2021/11/28 12:09:24;;;;;;;8.73;4.50;;;;;;;15.84;51.03;93553.69;5072410;28;20486;-84
2021/11/28 12:11:55;;;;;;;6.00;2.90;;;;;;;15.85;52.00;93569.38;5072982;28;20805;-83
2021/11/28 12:14:22;;;;;;;2.20;2.00;;;;;;;15.87;50.74;93567.34;5072906;28;20502;-83
2021/11/28 12:16:49;;;;;;;2.23;1.87;;;;;;;15.86;50.71;93578.13;5073023;28;20438;-84
2021/11/28 12:19:42;;;;;;;2.37;1.67;;;;;;;15.89;49.96;93581.19;5072954;28;20448;-83
2021/11/28 12:22:48;;;;;;;2.17;1.97;;;;;;;15.91;53.57;93578.38;5073154;28;20502;-78
2021/11/28 12:25:37;;;;;;;4.30;3.70;;;;;;;15.89;52.07;93577.72;5073120;28;20871;-82
2021/11/28 12:28:26;;;;;;;5.20;4.73;;;;;;;15.92;50.40;93586.13;5073168;28;20479;-83
2021/11/28 12:34:15;;;;;;;11.57;7.80;;;;;;;15.80;49.17;93574.44;5073569;28;20506;-83
2021/11/28 12:36:45;;;;;;;2.50;2.30;;;;;;;15.88;49.84;93576.91;5076355;28;20940;-80
2021/11/28 12:39:36;;;;;;;5.00;4.00;;;;;;;15.91;49.30;93570.44;5076941;28;20435;-80
2021/11/28 12:42:05;;;;;;;4.50;3.30;;;;;;;15.94;49.51;93554.19;5076195;28;20438;-80
2021/11/28 12:44:34;;;;;;;1.60;1.50;;;;;;;16.03;49.81;93548.50;5076356;28;21003;-80
2021/11/28 12:47:17;;;;;;;2.00;1.67;;;;;;;16.06;49.90;93548.13;5076265;28;20455;-80